sensor_id;sensor_type;location;lat;lon;timestamp;temperature;humidity
75357;HTU21D;63946;51.986;5.930;2022-11-06T07:13:34;10.88;71.06
75357;HTU21D;63946;51.986;5.930;2022-11-06T07:16:09;10.92;70.90
75357;HTU21D;63946;51.986;5.930;2022-11-06T07:19:00;10.96;70.85
75357;HTU21D;63946;51.986;5.930;2022-11-06T07:21:29;10.98;70.86
75357;HTU21D;63946;51.986;5.930;2022-11-06T07:23:57;11.01;70.83
75357;HTU21D;63946;51.986;5.930;2022-11-06T07:26:26;11.07;70.73
75357;HTU21D;63946;51.986;5.930;2022-11-06T07:28:55;11.10;70.63
75357;HTU21D;63946;51.986;5.930;2022-11-06T07:31:24;11.13;70.60
75357;HTU21D;63946;51.986;5.930;2022-11-06T07:33:52;11.15;70.56
75357;HTU21D;63946;51.986;5.930;2022-11-06T07:36:21;11.20;70.48
75357;HTU21D;63946;51.986;5.930;2022-11-06T07:38:52;11.27;70.36
75357;HTU21D;63946;51.986;5.930;2022-11-06T07:41:21;11.30;70.11
75357;HTU21D;63946;51.986;5.930;2022-11-06T07:43:49;11.33;70.04
75357;HTU21D;63946;51.986;5.930;2022-11-06T07:46:18;11.38;69.99
75357;HTU21D;63946;51.986;5.930;2022-11-06T07:48:47;11.44;69.91
75357;HTU21D;63946;51.986;5.930;2022-11-06T07:51:16;11.49;69.76
75357;HTU21D;63946;51.986;5.930;2022-11-06T07:53:45;11.48;69.74
75357;HTU21D;63946;51.986;5.930;2022-11-06T07:56:14;11.53;69.68
75357;HTU21D;63946;51.986;5.930;2022-11-06T07:58:43;11.54;69.61
75357;HTU21D;63946;51.986;5.930;2022-11-06T08:01:15;11.55;69.59
75357;HTU21D;63946;51.986;5.930;2022-11-06T08:03:45;11.56;69.57
75357;HTU21D;63946;51.986;5.930;2022-11-06T08:06:14;11.63;69.53
75357;HTU21D;63946;51.986;5.930;2022-11-06T08:08:42;11.63;69.35
75357;HTU21D;63946;51.986;5.930;2022-11-06T08:11:12;11.63;69.39
75357;HTU21D;63946;51.986;5.930;2022-11-06T08:13:41;11.68;69.38
75357;HTU21D;63946;51.986;5.930;2022-11-06T08:16:11;11.74;69.26
75357;HTU21D;63946;51.986;5.930;2022-11-06T08:18:41;11.78;69.05
75357;HTU21D;63946;51.986;5.930;2022-11-06T08:21:10;11.82;69.04
75357;HTU21D;63946;51.986;5.930;2022-11-06T08:23:38;11.86;68.98
75357;HTU21D;63946;51.986;5.930;2022-11-06T08:26:07;11.91;68.90
75357;HTU21D;63946;51.986;5.930;2022-11-06T08:28:36;12.00;68.70
75357;HTU21D;63946;51.986;5.930;2022-11-06T08:31:05;12.06;68.58
75357;HTU21D;63946;51.986;5.930;2022-11-06T08:33:36;12.11;68.46
75357;HTU21D;63946;51.986;5.930;2022-11-06T08:36:05;12.13;68.46
75357;HTU21D;63946;51.986;5.930;2022-11-06T08:38:37;12.16;68.36
75357;HTU21D;63946;51.986;5.930;2022-11-06T08:41:10;12.20;68.10
75357;HTU21D;63946;51.986;5.930;2022-11-06T08:43:40;12.17;68.07
75357;HTU21D;63946;51.986;5.930;2022-11-06T08:46:09;12.16;68.11
75357;HTU21D;63946;51.986;5.930;2022-11-06T08:48:38;12.16;68.01
75357;HTU21D;63946;51.986;5.930;2022-11-06T08:51:07;12.15;68.07
75357;HTU21D;63946;51.986;5.930;2022-11-06T08:53:35;12.12;67.91
75357;HTU21D;63946;51.986;5.930;2022-11-06T08:56:05;12.10;68.01
75357;HTU21D;63946;51.986;5.930;2022-11-06T08:58:33;12.07;68.01
75357;HTU21D;63946;51.986;5.930;2022-11-06T09:01:02;12.08;68.08
75357;HTU21D;63946;51.986;5.930;2022-11-06T09:03:33;12.14;68.01
75357;HTU21D;63946;51.986;5.930;2022-11-06T09:06:04;12.17;68.05
75357;HTU21D;63946;51.986;5.930;2022-11-06T09:08:34;12.22;67.95
75357;HTU21D;63946;51.986;5.930;2022-11-06T09:11:06;12.25;67.80
75357;HTU21D;63946;51.986;5.930;2022-11-06T09:13:36;12.25;67.93
75357;HTU21D;63946;51.986;5.930;2022-11-06T09:16:08;12.30;67.87
75357;HTU21D;63946;51.986;5.930;2022-11-06T09:18:37;12.31;67.68
75357;HTU21D;63946;51.986;5.930;2022-11-06T09:21:05;12.33;67.73
75357;HTU21D;63946;51.986;5.930;2022-11-06T09:23:34;12.41;67.72
75357;HTU21D;63946;51.986;5.930;2022-11-06T09:26:05;12.45;67.49
75357;HTU21D;63946;51.986;5.930;2022-11-06T09:28:34;12.51;67.47
75357;HTU21D;63946;51.986;5.930;2022-11-06T09:31:03;12.58;67.43
75357;HTU21D;63946;51.986;5.930;2022-11-06T09:33:32;12.69;67.22
75357;HTU21D;63946;51.986;5.930;2022-11-06T09:36:04;12.79;67.04
75357;HTU21D;63946;51.986;5.930;2022-11-06T09:38:33;12.84;66.89
75357;HTU21D;63946;51.986;5.930;2022-11-06T09:41:02;12.87;66.84
75357;HTU21D;63946;51.986;5.930;2022-11-06T09:43:36;12.88;66.88
75357;HTU21D;63946;51.986;5.930;2022-11-06T09:46:31;12.90;66.48
75357;HTU21D;63946;51.986;5.930;2022-11-06T09:49:53;12.91;66.64
75357;HTU21D;63946;51.986;5.930;2022-11-06T09:52:28;12.99;66.46
75357;HTU21D;63946;51.986;5.930;2022-11-06T09:55:11;12.99;66.26
75357;HTU21D;63946;51.986;5.930;2022-11-06T09:57:46;13.02;66.31
75357;HTU21D;63946;51.986;5.930;2022-11-06T10:00:19;13.05;66.32
75357;HTU21D;63946;51.986;5.930;2022-11-06T10:02:48;13.08;66.21
75357;HTU21D;63946;51.986;5.930;2022-11-06T10:05:28;13.09;66.17
75357;HTU21D;63946;51.986;5.930;2022-11-06T10:08:06;13.09;66.28
75357;HTU21D;63946;51.986;5.930;2022-11-06T10:18:57;13.08;65.89
75357;HTU21D;63946;51.986;5.930;2022-11-06T10:21:45;13.08;65.74
75357;HTU21D;63946;51.986;5.930;2022-11-06T10:24:25;13.09;65.71
75357;HTU21D;63946;51.986;5.930;2022-11-06T10:26:58;13.09;65.58
75357;HTU21D;63946;51.986;5.930;2022-11-06T10:32:22;13.03;65.58
75357;HTU21D;63946;51.986;5.930;2022-11-06T10:35:02;12.99;65.53
75357;HTU21D;63946;51.986;5.930;2022-11-06T10:37:43;12.99;65.28
75357;HTU21D;63946;51.986;5.930;2022-11-06T10:40:20;12.96;65.37
75357;HTU21D;63946;51.986;5.930;2022-11-06T10:45:43;13.08;65.08
75357;HTU21D;63946;51.986;5.930;2022-11-06T10:48:25;13.14;64.88
75357;HTU21D;63946;51.986;5.930;2022-11-06T10:54:07;13.16;64.65
75357;HTU21D;63946;51.986;5.930;2022-11-06T10:59:41;13.17;64.71
75357;HTU21D;63946;51.986;5.930;2022-11-06T11:02:39;13.18;64.63
75357;HTU21D;63946;51.986;5.930;2022-11-06T11:05:13;13.16;64.60
75357;HTU21D;63946;51.986;5.930;2022-11-06T11:07:44;13.14;64.46
75357;HTU21D;63946;51.986;5.930;2022-11-06T11:10:34;13.15;64.37
75357;HTU21D;63946;51.986;5.930;2022-11-06T11:13:04;13.24;64.47
75357;HTU21D;63946;51.986;5.930;2022-11-06T11:15:41;13.26;64.47
75357;HTU21D;63946;51.986;5.930;2022-11-06T11:18:14;13.27;64.32
75357;HTU21D;63946;51.986;5.930;2022-11-06T11:20:46;13.23;64.11
75357;HTU21D;63946;51.986;5.930;2022-11-06T11:23:22;13.19;64.21
75357;HTU21D;63946;51.986;5.930;2022-11-06T11:25:53;13.17;64.18
75357;HTU21D;63946;51.986;5.930;2022-11-06T11:28:34;13.20;64.20
75357;HTU21D;63946;51.986;5.930;2022-11-06T11:31:12;13.18;63.98
75357;HTU21D;63946;51.986;5.930;2022-11-06T11:33:54;13.22;63.90
75357;HTU21D;63946;51.986;5.930;2022-11-06T11:36:23;13.25;63.90
75357;HTU21D;63946;51.986;5.930;2022-11-06T11:38:52;13.33;63.84
75357;HTU21D;63946;51.986;5.930;2022-11-06T11:41:23;13.39;63.78
75357;HTU21D;63946;51.986;5.930;2022-11-06T11:44:16;13.43;63.60
75357;HTU21D;63946;51.986;5.930;2022-11-06T11:46:50;13.49;63.35
75357;HTU21D;63946;51.986;5.930;2022-11-06T11:49:32;13.50;62.98
75357;HTU21D;63946;51.986;5.930;2022-11-06T11:52:03;13.51;63.05
75357;HTU21D;63946;51.986;5.930;2022-11-06T11:54:34;13.53;62.73
75357;HTU21D;63946;51.986;5.930;2022-11-06T11:57:10;13.53;62.68
75357;HTU21D;63946;51.986;5.930;2022-11-06T11:59:48;13.58;62.65
75357;HTU21D;63946;51.986;5.930;2022-11-06T12:02:26;13.61;62.63
75357;HTU21D;63946;51.986;5.930;2022-11-06T12:05:23;13.64;62.04
75357;HTU21D;63946;51.986;5.930;2022-11-06T12:07:58;13.60;62.10
75357;HTU21D;63946;51.986;5.930;2022-11-06T12:10:36;13.55;61.47
75357;HTU21D;63946;51.986;5.930;2022-11-06T12:13:16;13.54;61.57
75357;HTU21D;63946;51.986;5.930;2022-11-06T12:16:09;13.59;61.37
75357;HTU21D;63946;51.986;5.930;2022-11-06T12:18:43;13.60;61.41
75357;HTU21D;63946;51.986;5.930;2022-11-06T12:21:19;13.61;61.51
75357;HTU21D;63946;51.986;5.930;2022-11-06T12:24:00;13.63;61.29
75357;HTU21D;63946;51.986;5.930;2022-11-06T12:26:49;13.60;61.36
75357;HTU21D;63946;51.986;5.930;2022-11-06T12:32:07;13.47;61.19
75357;HTU21D;63946;51.986;5.930;2022-11-06T12:35:13;13.41;61.09
75357;HTU21D;63946;51.986;5.930;2022-11-06T12:38:03;13.36;61.18
75357;HTU21D;63946;51.986;5.930;2022-11-06T12:40:42;13.39;61.32
75357;HTU21D;63946;51.986;5.930;2022-11-06T12:43:30;13.41;60.99
75357;HTU21D;63946;51.986;5.930;2022-11-06T12:49:15;13.40;60.86
75357;HTU21D;63946;51.986;5.930;2022-11-06T12:54:51;13.43;61.19
75357;HTU21D;63946;51.986;5.930;2022-11-06T13:02:56;13.48;60.93
75357;HTU21D;63946;51.986;5.930;2022-11-06T13:08:48;13.40;61.33
75357;HTU21D;63946;51.986;5.930;2022-11-06T13:22:58;13.45;61.62
75357;HTU21D;63946;51.986;5.930;2022-11-06T13:28:25;13.43;61.60
75357;HTU21D;63946;51.986;5.930;2022-11-06T13:30:56;13.38;61.58
75357;HTU21D;63946;51.986;5.930;2022-11-06T13:33:28;13.37;61.85
75357;HTU21D;63946;51.986;5.930;2022-11-06T13:36:00;13.38;61.89
75357;HTU21D;63946;51.986;5.930;2022-11-06T13:38:37;13.41;62.03
75357;HTU21D;63946;51.986;5.930;2022-11-06T13:41:20;13.41;61.72
75357;HTU21D;63946;51.986;5.930;2022-11-06T13:43:55;13.41;61.91
75357;HTU21D;63946;51.986;5.930;2022-11-06T13:49:21;13.38;61.89
75357;HTU21D;63946;51.986;5.930;2022-11-06T13:51:55;13.38;61.35
75357;HTU21D;63946;51.986;5.930;2022-11-06T13:54:40;13.32;60.43
75357;HTU21D;63946;51.986;5.930;2022-11-06T13:57:34;13.27;59.83
75357;HTU21D;63946;51.986;5.930;2022-11-06T14:03:51;13.21;59.39
75357;HTU21D;63946;51.986;5.930;2022-11-06T14:06:26;13.21;59.48
75357;HTU21D;63946;51.986;5.930;2022-11-06T14:09:03;13.20;59.41
75357;HTU21D;63946;51.986;5.930;2022-11-06T14:11:35;13.21;59.11
75357;HTU21D;63946;51.986;5.930;2022-11-06T14:14:22;13.18;59.22
75357;HTU21D;63946;51.986;5.930;2022-11-06T14:17:11;13.18;58.81
75357;HTU21D;63946;51.986;5.930;2022-11-06T14:22:32;13.19;58.49
75357;HTU21D;63946;51.986;5.930;2022-11-06T14:28:08;13.00;58.06
75357;HTU21D;63946;51.986;5.930;2022-11-06T14:30:40;12.89;58.45
75357;HTU21D;63946;51.986;5.930;2022-11-06T14:33:11;12.82;58.80
75357;HTU21D;63946;51.986;5.930;2022-11-06T14:36:13;12.73;58.86
75357;HTU21D;63946;51.986;5.930;2022-11-06T14:38:53;12.65;59.29
75357;HTU21D;63946;51.986;5.930;2022-11-06T14:44:17;12.49;60.48
75357;HTU21D;63946;51.986;5.930;2022-11-06T14:46:49;12.40;60.69
75357;HTU21D;63946;51.986;5.930;2022-11-06T14:49:39;12.33;61.11
75357;HTU21D;63946;51.986;5.930;2022-11-06T14:52:13;12.21;61.29
75357;HTU21D;63946;51.986;5.930;2022-11-06T14:54:55;12.08;60.99
75357;HTU21D;63946;51.986;5.930;2022-11-06T14:57:39;11.98;61.59
75357;HTU21D;63946;51.986;5.930;2022-11-06T15:00:34;11.87;62.00
75357;HTU21D;63946;51.986;5.930;2022-11-06T15:03:04;11.71;62.60
75357;HTU21D;63946;51.986;5.930;2022-11-06T15:05:34;11.63;63.27
75357;HTU21D;63946;51.986;5.930;2022-11-06T15:08:03;11.60;63.80
75357;HTU21D;63946;51.986;5.930;2022-11-06T15:15:48;11.31;64.92
75357;HTU21D;63946;51.986;5.930;2022-11-06T15:18:19;11.26;65.00
75357;HTU21D;63946;51.986;5.930;2022-11-06T15:20:58;11.13;65.04
75357;HTU21D;63946;51.986;5.930;2022-11-06T15:26:28;10.96;65.72
75357;HTU21D;63946;51.986;5.930;2022-11-06T15:29:17;10.88;66.33
75357;HTU21D;63946;51.986;5.930;2022-11-06T15:31:59;10.87;66.65
75357;HTU21D;63946;51.986;5.930;2022-11-06T15:34:35;10.85;66.71
75357;HTU21D;63946;51.986;5.930;2022-11-06T15:37:13;10.83;66.96
75357;HTU21D;63946;51.986;5.930;2022-11-06T15:42:17;10.71;67.79
75357;HTU21D;63946;51.986;5.930;2022-11-06T15:44:50;10.59;68.25
75357;HTU21D;63946;51.986;5.930;2022-11-06T15:47:23;10.54;68.59
75357;HTU21D;63946;51.986;5.930;2022-11-06T15:50:18;10.40;69.11
75357;HTU21D;63946;51.986;5.930;2022-11-06T15:52:48;10.31;68.95
75357;HTU21D;63946;51.986;5.930;2022-11-06T15:57:52;10.15;69.12
75357;HTU21D;63946;51.986;5.930;2022-11-06T16:00:24;10.11;69.25
75357;HTU21D;63946;51.986;5.930;2022-11-06T16:05:29;9.96;68.84
75357;HTU21D;63946;51.986;5.930;2022-11-06T16:08:02;9.91;69.25
75357;HTU21D;63946;51.986;5.930;2022-11-06T16:10:34;9.86;69.53
75357;HTU21D;63946;51.986;5.930;2022-11-06T16:13:10;9.85;69.69
75357;HTU21D;63946;51.986;5.930;2022-11-06T16:15:58;9.84;70.10
75357;HTU21D;63946;51.986;5.930;2022-11-06T16:21:10;9.84;70.45
75357;HTU21D;63946;51.986;5.930;2022-11-06T16:23:47;9.82;70.68
75357;HTU21D;63946;51.986;5.930;2022-11-06T16:26:22;9.83;70.84
75357;HTU21D;63946;51.986;5.930;2022-11-06T16:28:53;9.81;71.20
75357;HTU21D;63946;51.986;5.930;2022-11-06T16:31:25;9.78;71.49
75357;HTU21D;63946;51.986;5.930;2022-11-06T16:34:06;9.74;71.78
75357;HTU21D;63946;51.986;5.930;2022-11-06T16:39:50;9.78;71.84
75357;HTU21D;63946;51.986;5.930;2022-11-06T16:42:27;9.75;71.78
75357;HTU21D;63946;51.986;5.930;2022-11-06T16:45:18;9.69;72.00
75357;HTU21D;63946;51.986;5.930;2022-11-06T16:51:09;9.57;72.10
75357;HTU21D;63946;51.986;5.930;2022-11-06T16:53:59;9.54;72.34
75357;HTU21D;63946;51.986;5.930;2022-11-06T16:56:30;9.53;72.29
75357;HTU21D;63946;51.986;5.930;2022-11-06T16:59:04;9.56;72.28
75357;HTU21D;63946;51.986;5.930;2022-11-06T17:01:40;9.54;72.33
75357;HTU21D;63946;51.986;5.930;2022-11-06T17:04:23;9.55;72.35
75357;HTU21D;63946;51.986;5.930;2022-11-06T17:06:55;9.60;72.35
75357;HTU21D;63946;51.986;5.930;2022-11-06T17:09:33;9.59;72.49
75357;HTU21D;63946;51.986;5.930;2022-11-06T17:12:02;9.60;72.55
75357;HTU21D;63946;51.986;5.930;2022-11-06T17:14:31;9.60;72.60
75357;HTU21D;63946;51.986;5.930;2022-11-06T17:17:01;9.56;72.95
75357;HTU21D;63946;51.986;5.930;2022-11-06T17:19:30;9.54;73.15
75357;HTU21D;63946;51.986;5.930;2022-11-06T17:21:59;9.55;73.28
75357;HTU21D;63946;51.986;5.930;2022-11-06T17:24:28;9.56;73.49
75357;HTU21D;63946;51.986;5.930;2022-11-06T17:26:56;9.54;73.64
75357;HTU21D;63946;51.986;5.930;2022-11-06T17:29:25;9.52;73.79
75357;HTU21D;63946;51.986;5.930;2022-11-06T17:31:54;9.50;74.02
75357;HTU21D;63946;51.986;5.930;2022-11-06T17:34:22;9.51;74.04
75357;HTU21D;63946;51.986;5.930;2022-11-06T17:36:51;9.53;74.05
75357;HTU21D;63946;51.986;5.930;2022-11-06T17:39:20;9.54;74.09
75357;HTU21D;63946;51.986;5.930;2022-11-06T17:41:50;9.53;74.06
75357;HTU21D;63946;51.986;5.930;2022-11-06T17:44:19;9.54;73.97
75357;HTU21D;63946;51.986;5.930;2022-11-06T17:46:49;9.54;73.92
75357;HTU21D;63946;51.986;5.930;2022-11-06T17:49:17;9.53;73.98
75357;HTU21D;63946;51.986;5.930;2022-11-06T17:51:47;9.53;74.06
75357;HTU21D;63946;51.986;5.930;2022-11-06T17:54:28;9.54;74.04
75357;HTU21D;63946;51.986;5.930;2022-11-06T17:57:00;9.53;74.09
75357;HTU21D;63946;51.986;5.930;2022-11-06T17:59:29;9.53;74.08
75357;HTU21D;63946;51.986;5.930;2022-11-06T18:01:58;9.46;74.01
75357;HTU21D;63946;51.986;5.930;2022-11-06T18:04:28;9.45;74.01
75357;HTU21D;63946;51.986;5.930;2022-11-06T18:06:59;9.51;73.87
75357;HTU21D;63946;51.986;5.930;2022-11-06T18:09:28;9.53;73.71
75357;HTU21D;63946;51.986;5.930;2022-11-06T18:11:57;9.54;73.49
75357;HTU21D;63946;51.986;5.930;2022-11-06T18:14:33;9.52;73.54
75357;HTU21D;63946;51.986;5.930;2022-11-06T18:20:33;9.54;73.07
75357;HTU21D;63946;51.986;5.930;2022-11-06T18:23:02;9.57;72.85
75357;HTU21D;63946;51.986;5.930;2022-11-06T18:25:30;9.60;72.72
75357;HTU21D;63946;51.986;5.930;2022-11-06T18:27:59;9.64;72.63
75357;HTU21D;63946;51.986;5.930;2022-11-06T18:30:28;9.63;72.65
75357;HTU21D;63946;51.986;5.930;2022-11-06T18:32:57;9.62;72.79
75357;HTU21D;63946;51.986;5.930;2022-11-06T18:35:26;9.69;72.56
75357;HTU21D;63946;51.986;5.930;2022-11-06T18:37:54;9.71;72.42
75357;HTU21D;63946;51.986;5.930;2022-11-06T18:40:23;9.67;72.45
75357;HTU21D;63946;51.986;5.930;2022-11-06T18:42:52;9.70;72.38
75357;HTU21D;63946;51.986;5.930;2022-11-06T18:45:21;9.76;72.25
75357;HTU21D;63946;51.986;5.930;2022-11-06T18:47:50;9.80;71.99
75357;HTU21D;63946;51.986;5.930;2022-11-06T18:50:19;9.82;71.80
75357;HTU21D;63946;51.986;5.930;2022-11-06T18:52:48;9.82;71.75
75357;HTU21D;63946;51.986;5.930;2022-11-06T18:55:16;9.82;71.80
75357;HTU21D;63946;51.986;5.930;2022-11-06T18:57:45;9.83;71.85
75357;HTU21D;63946;51.986;5.930;2022-11-06T19:00:17;9.81;71.82
75357;HTU21D;63946;51.986;5.930;2022-11-06T19:02:45;9.86;71.78
75357;HTU21D;63946;51.986;5.930;2022-11-06T19:05:14;9.89;71.70
75357;HTU21D;63946;51.986;5.930;2022-11-06T19:07:44;9.94;71.64
75357;HTU21D;63946;51.986;5.930;2022-11-06T19:10:13;9.97;71.57
75357;HTU21D;63946;51.986;5.930;2022-11-06T19:12:42;10.03;71.50
75357;HTU21D;63946;51.986;5.930;2022-11-06T19:15:10;10.06;71.45
75357;HTU21D;63946;51.986;5.930;2022-11-06T19:17:39;10.09;71.44
75357;HTU21D;63946;51.986;5.930;2022-11-06T19:20:08;10.10;71.38
75357;HTU21D;63946;51.986;5.930;2022-11-06T19:22:37;10.13;71.37
75357;HTU21D;63946;51.986;5.930;2022-11-06T19:25:06;10.18;71.32
75357;HTU21D;63946;51.986;5.930;2022-11-06T19:27:34;10.15;71.35
75357;HTU21D;63946;51.986;5.930;2022-11-06T19:30:03;10.14;71.41
75357;HTU21D;63946;51.986;5.930;2022-11-06T19:32:33;10.18;71.46
75357;HTU21D;63946;51.986;5.930;2022-11-06T19:35:02;10.22;71.43
75357;HTU21D;63946;51.986;5.930;2022-11-06T19:37:30;10.22;71.44
75357;HTU21D;63946;51.986;5.930;2022-11-06T19:40:00;10.26;71.46
75357;HTU21D;63946;51.986;5.930;2022-11-06T19:42:29;10.27;71.44
75357;HTU21D;63946;51.986;5.930;2022-11-06T19:44:58;10.28;71.55
75357;HTU21D;63946;51.986;5.930;2022-11-06T19:47:27;10.31;71.60
75357;HTU21D;63946;51.986;5.930;2022-11-06T19:49:57;10.34;71.68
75357;HTU21D;63946;51.986;5.930;2022-11-06T19:52:26;10.34;71.71
75357;HTU21D;63946;51.986;5.930;2022-11-06T19:54:55;10.39;71.69
75357;HTU21D;63946;51.986;5.930;2022-11-06T19:57:25;10.38;71.85
75357;HTU21D;63946;51.986;5.930;2022-11-06T19:59:54;10.35;72.21
75357;HTU21D;63946;51.986;5.930;2022-11-06T20:02:23;10.38;72.32
75357;HTU21D;63946;51.986;5.930;2022-11-06T20:04:51;10.40;72.37
75357;HTU21D;63946;51.986;5.930;2022-11-06T20:07:20;10.41;72.42
75357;HTU21D;63946;51.986;5.930;2022-11-06T20:09:49;10.42;72.49
75357;HTU21D;63946;51.986;5.930;2022-11-06T20:12:19;10.41;72.54
75357;HTU21D;63946;51.986;5.930;2022-11-06T20:14:51;10.42;72.64
75357;HTU21D;63946;51.986;5.930;2022-11-06T20:17:19;10.46;72.64
75357;HTU21D;63946;51.986;5.930;2022-11-06T20:19:48;10.49;72.74
75357;HTU21D;63946;51.986;5.930;2022-11-06T20:22:17;10.49;72.79
75357;HTU21D;63946;51.986;5.930;2022-11-06T20:24:45;10.49;72.83
75357;HTU21D;63946;51.986;5.930;2022-11-06T20:27:14;10.50;72.92
75357;HTU21D;63946;51.986;5.930;2022-11-06T20:29:43;10.53;72.90
75357;HTU21D;63946;51.986;5.930;2022-11-06T20:32:12;10.57;72.90
75357;HTU21D;63946;51.986;5.930;2022-11-06T20:34:44;10.62;72.92
75357;HTU21D;63946;51.986;5.930;2022-11-06T20:37:13;10.64;72.93
75357;HTU21D;63946;51.986;5.930;2022-11-06T20:39:41;10.65;72.97
75357;HTU21D;63946;51.986;5.930;2022-11-06T20:42:10;10.69;72.91
75357;HTU21D;63946;51.986;5.930;2022-11-06T20:44:39;10.72;72.91
75357;HTU21D;63946;51.986;5.930;2022-11-06T20:47:07;10.72;73.02
75357;HTU21D;63946;51.986;5.930;2022-11-06T20:49:37;10.75;73.17
75357;HTU21D;63946;51.986;5.930;2022-11-06T20:52:08;10.80;73.05
75357;HTU21D;63946;51.986;5.930;2022-11-06T20:54:37;10.82;73.10
75357;HTU21D;63946;51.986;5.930;2022-11-06T20:57:06;10.85;73.06
75357;HTU21D;63946;51.986;5.930;2022-11-06T20:59:34;10.87;73.01
75357;HTU21D;63946;51.986;5.930;2022-11-06T21:02:03;10.94;72.96
75357;HTU21D;63946;51.986;5.930;2022-11-06T21:04:32;10.94;72.99
75357;HTU21D;63946;51.986;5.930;2022-11-06T21:07:02;10.97;72.99
75357;HTU21D;63946;51.986;5.930;2022-11-06T21:09:30;10.97;73.06
75357;HTU21D;63946;51.986;5.930;2022-11-06T21:11:59;11.00;73.12
75357;HTU21D;63946;51.986;5.930;2022-11-06T21:14:28;11.01;73.15
75357;HTU21D;63946;51.986;5.930;2022-11-06T21:16:57;11.01;73.23
75357;HTU21D;63946;51.986;5.930;2022-11-06T21:19:27;11.04;73.12
75357;HTU21D;63946;51.986;5.930;2022-11-06T21:21:57;11.09;73.12
75357;HTU21D;63946;51.986;5.930;2022-11-06T21:24:26;11.14;73.09
75357;HTU21D;63946;51.986;5.930;2022-11-06T21:26:55;11.17;73.16
75357;HTU21D;63946;51.986;5.930;2022-11-06T21:29:24;11.17;73.21
75357;HTU21D;63946;51.986;5.930;2022-11-06T21:31:53;11.23;73.14
75357;HTU21D;63946;51.986;5.930;2022-11-06T21:34:21;11.26;73.09
75357;HTU21D;63946;51.986;5.930;2022-11-06T21:36:50;11.28;73.15
